Time;durP1;ratioP1;P1;durP2;ratioP2;P2;SDS_P1;SDS_P2;PMS_P1;PMS_P2;Temp;Humidity;BMP_temperature;BMP_pressure;BME280_temperature;BME280_humidity;BME280_pressure;Samples;Min_cycle;Max_cycle;Signal;HPM_P1;HPM_P2
2023/02/15 00:01:25;;;;;;;73.25;31.90;;;-1.20;99.90;;;;;;5071005;28;20027;-70
2023/02/15 00:03:51;;;;;;;79.35;32.80;;;-1.30;99.90;;;;;;5059694;28;20032;-67
2023/02/15 00:06:17;;;;;;;74.38;32.83;;;-1.30;99.90;;;;;;5072053;28;20137;-67
2023/02/15 00:08:44;;;;;;;78.50;31.90;;;-1.20;99.90;;;;;;5071174;28;20120;-67
2023/02/15 00:11:15;;;;;;;77.03;33.95;;;-1.30;99.90;;;;;;5072671;28;20068;-67
2023/02/15 00:13:41;;;;;;;73.57;32.30;;;-1.30;99.90;;;;;;5071904;28;20039;-67
2023/02/15 00:16:08;;;;;;;77.70;34.38;;;-1.30;99.90;;;;;;5071479;28;20032;-67
2023/02/15 00:18:34;;;;;;;77.35;32.85;;;-1.30;99.90;;;;;;5071876;28;20028;-67
2023/02/15 00:21:08;;;;;;;75.30;31.40;;;-1.30;99.90;;;;;;5054818;28;20025;-67
2023/02/15 00:23:34;;;;;;;77.90;31.13;;;-1.40;99.90;;;;;;5061721;28;20037;-67
2023/02/15 00:26:08;;;;;;;70.65;31.30;;;-1.40;99.90;;;;;;5062915;28;20032;-67
2023/02/15 00:28:34;;;;;;;77.38;32.33;;;-1.50;99.90;;;;;;5070708;28;20045;-66
2023/02/15 00:31:04;;;;;;;77.55;31.73;;;-1.40;99.90;;;;;;5072651;28;20021;-68
2023/02/15 00:33:30;;;;;;;80.82;33.25;;;-1.50;99.90;;;;;;5070885;28;20031;-70
2023/02/15 00:35:58;;;;;;;86.35;33.72;;;-1.50;99.90;;;;;;5072373;28;20029;-67
2023/02/15 00:38:23;;;;;;;84.50;32.58;;;-1.50;99.90;;;;;;5072263;28;20550;-67
2023/02/15 00:40:53;;;;;;;79.95;32.78;;;-1.40;99.90;;;;;;5071155;28;20103;-67
2023/02/15 00:43:19;;;;;;;76.43;31.65;;;-1.40;99.90;;;;;;5049582;28;20063;-68
2023/02/15 00:45:45;;;;;;;70.05;30.58;;;-1.40;99.90;;;;;;5070426;28;20601;-67
2023/02/15 00:48:11;;;;;;;79.55;31.75;;;-1.40;99.90;;;;;;5063956;28;20039;-67
2023/02/15 00:50:37;;;;;;;68.63;29.92;;;-1.50;99.90;;;;;;5070831;28;20025;-67
2023/02/15 00:53:02;;;;;;;81.82;32.05;;;-1.50;99.90;;;;;;5071967;28;20462;-67
2023/02/15 00:55:28;;;;;;;76.97;31.40;;;-1.60;99.90;;;;;;5070515;28;20202;-71
2023/02/15 00:57:53;;;;;;;75.70;30.25;;;-1.60;99.90;;;;;;5059950;28;20382;-67
2023/02/15 01:00:19;;;;;;;75.97;30.10;;;-1.60;99.90;;;;;;5066410;28;20024;-67
2023/02/15 01:02:45;;;;;;;83.35;32.15;;;-1.60;99.90;;;;;;5071106;28;20039;-67
2023/02/15 01:05:10;;;;;;;72.60;31.42;;;-1.60;99.90;;;;;;5071250;28;20027;-67
2023/02/15 01:07:36;;;;;;;68.88;30.02;;;-1.60;99.90;;;;;;5070547;28;20027;-67
2023/02/15 01:10:02;;;;;;;69.93;29.02;;;-1.70;99.90;;;;;;5070896;28;20020;-67
2023/02/15 01:12:27;;;;;;;76.75;31.80;;;-1.70;99.90;;;;;;5071173;28;20066;-71
2023/02/15 01:14:53;;;;;;;85.28;32.78;;;-1.70;99.90;;;;;;5070766;28;20029;-67
2023/02/15 01:17:18;;;;;;;84.00;33.80;;;-1.70;99.90;;;;;;5071277;28;20039;-67
2023/02/15 01:19:44;;;;;;;84.32;34.22;;;-1.70;99.90;;;;;;5070103;28;20075;-67
2023/02/15 01:22:10;;;;;;;83.30;31.88;;;-1.70;99.90;;;;;;5071004;28;20110;-67
2023/02/15 01:24:35;;;;;;;77.63;32.08;;;-1.70;99.90;;;;;;5069940;28;20027;-68
2023/02/15 01:27:01;;;;;;;78.35;32.42;;;-1.70;99.90;;;;;;5072516;28;20059;-67
2023/02/15 01:29:26;;;;;;;74.85;31.02;;;-1.70;99.90;;;;;;5090204;28;20065;-70
2023/02/15 01:31:52;;;;;;;75.80;31.13;;;-1.70;99.90;;;;;;5090493;28;20495;-67
2023/02/15 01:34:17;;;;;;;74.85;30.63;;;-1.80;99.90;;;;;;5090447;28;20496;-67
2023/02/15 01:36:43;;;;;;;68.10;29.75;;;-1.80;99.90;;;;;;5090433;28;20098;-67
2023/02/15 01:39:10;;;;;;;78.82;31.88;;;-1.80;99.90;;;;;;5090425;28;20038;-67
2023/02/15 01:41:36;;;;;;;68.55;30.63;;;-1.90;99.90;;;;;;5090180;28;20525;-67
2023/02/15 01:44:02;;;;;;;64.47;28.77;;;-1.90;99.90;;;;;;5080395;28;20123;-67
2023/02/15 01:46:37;;;;;;;73.60;29.75;;;-1.90;99.90;;;;;;5090795;28;20032;-68
2023/02/15 01:49:14;;;;;;;76.50;30.73;;;-2.00;99.90;;;;;;5090826;28;20020;-66
2023/02/15 01:51:42;;;;;;;75.78;30.20;;;-2.00;99.90;;;;;;5090873;28;20035;-67
2023/02/15 01:54:18;;;;;;;76.15;31.25;;;-2.00;99.90;;;;;;5077393;28;20031;-67
2023/02/15 01:56:43;;;;;;;84.43;33.67;;;-2.00;99.90;;;;;;5090626;28;20032;-66
2023/02/15 01:59:19;;;;;;;79.60;33.00;;;-2.00;99.90;;;;;;5091246;28;20047;-66
2023/02/15 02:01:46;;;;;;;72.05;30.15;;;-2.00;99.90;;;;;;5080303;28;20476;-67
2023/02/15 02:04:18;;;;;;;80.28;32.20;;;-2.10;99.90;;;;;;5090329;28;20043;-67
2023/02/15 02:06:47;;;;;;;77.72;30.80;;;-2.10;99.90;;;;;;5090288;28;20423;-66
2023/02/15 02:09:13;;;;;;;81.18;32.78;;;-2.10;99.90;;;;;;5090795;28;20042;-66
2023/02/15 02:11:40;;;;;;;80.63;31.40;;;-2.10;99.90;;;;;;5090184;28;20033;-67
2023/02/15 02:14:06;;;;;;;77.60;31.95;;;-2.20;99.90;;;;;;5072863;28;20032;-67
2023/02/15 02:16:40;;;;;;;83.85;32.30;;;-2.20;99.90;;;;;;5082437;28;20033;-69
2023/02/15 02:19:43;;;;;;;82.10;34.05;;;-2.20;99.90;;;;;;5087848;28;20020;-67
2023/02/15 02:22:45;;;;;;;86.78;32.80;;;-2.10;99.90;;;;;;5091220;28;20028;-66
2023/02/15 02:25:29;;;;;;;77.60;32.70;;;-2.20;99.90;;;;;;5079772;28;20028;-67
2023/02/15 02:28:14;;;;;;;81.18;31.50;;;-2.10;99.90;;;;;;5090176;28;20044;-66
2023/02/15 02:31:12;;;;;;;79.00;30.98;;;-2.20;99.90;;;;;;5090001;28;20024;-67
2023/02/15 02:33:57;;;;;;;76.65;30.45;;;-2.20;99.90;;;;;;5079651;28;20055;-67
2023/02/15 02:36:53;;;;;;;83.35;33.13;;;-2.30;99.90;;;;;;5091029;28;20423;-67
2023/02/15 02:39:40;;;;;;;83.05;32.53;;;-2.30;99.90;;;;;;5093061;28;20066;-67
2023/02/15 02:42:09;;;;;;;75.47;31.48;;;-2.30;99.90;;;;;;5094859;28;20032;-67
2023/02/15 02:44:43;;;;;;;86.10;32.22;;;-2.40;99.90;;;;;;5093068;28;20020;-67
2023/02/15 02:47:35;;;;;;;82.03;32.08;;;-2.40;99.90;;;;;;5094888;28;20111;-68
2023/02/15 02:50:05;;;;;;;80.55;32.90;;;-2.50;99.90;;;;;;5083801;28;20082;-68
2023/02/15 02:52:42;;;;;;;75.55;30.90;;;-2.50;99.90;;;;;;5094232;28;20047;-67
2023/02/15 02:55:27;;;;;;;78.00;30.67;;;-2.50;99.90;;;;;;5094430;28;20043;-67
2023/02/15 02:57:58;;;;;;;78.88;31.50;;;-2.60;99.90;;;;;;5094367;28;20028;-67
2023/02/15 03:00:26;;;;;;;77.97;31.30;;;-2.60;99.90;;;;;;5093113;28;20035;-67
2023/02/15 03:02:58;;;;;;;84.57;32.45;;;-2.60;99.90;;;;;;5094195;28;20032;-67
2023/02/15 03:05:27;;;;;;;80.88;31.70;;;-2.60;99.90;;;;;;5081819;28;20116;-67
2023/02/15 03:07:56;;;;;;;77.00;31.80;;;-2.60;99.90;;;;;;5086226;28;20020;-67
2023/02/15 03:10:24;;;;;;;80.88;32.03;;;-2.70;99.90;;;;;;5093693;28;20366;-67
2023/02/15 03:12:50;;;;;;;86.43;34.60;;;-2.70;99.90;;;;;;5088059;28;20050;-67
2023/02/15 03:15:20;;;;;;;85.30;32.40;;;-2.70;99.90;;;;;;5093729;28;20020;-67
2023/02/15 03:17:55;;;;;;;88.90;33.55;;;-2.80;99.90;;;;;;5087927;28;20016;-67
2023/02/15 03:20:29;;;;;;;81.03;31.92;;;-2.80;99.90;;;;;;5093443;28;20052;-66
2023/02/15 03:23:02;;;;;;;86.47;33.50;;;-2.80;99.90;;;;;;5091031;28;20031;-66
2023/02/15 03:25:37;;;;;;;89.68;35.28;;;-2.80;99.90;;;;;;5090388;28;20042;-70
2023/02/15 03:28:07;;;;;;;90.40;33.35;;;-2.80;99.90;;;;;;5093219;28;20040;-66
2023/02/15 03:30:34;;;;;;;90.18;33.97;;;-2.90;99.90;;;;;;5092612;28;20035;-67
2023/02/15 03:33:02;;;;;;;88.35;33.78;;;-2.80;99.90;;;;;;5093608;28;20024;-66
2023/02/15 03:35:39;;;;;;;92.18;34.67;;;-2.90;99.90;;;;;;5092717;28;20063;-71
2023/02/15 03:38:07;;;;;;;90.40;35.55;;;-2.90;99.90;;;;;;5093638;28;20031;-66
2023/02/15 03:43:35;;;;;;;84.95;34.35;;;-2.90;99.90;;;;;;5092777;28;20039;-69
2023/02/15 03:46:11;;;;;;;91.38;36.25;;;-2.90;99.90;;;;;;5093650;28;20069;-66
2023/02/15 03:48:42;;;;;;;95.72;36.53;;;-2.90;99.90;;;;;;5091712;28;20496;-67
2023/02/15 03:51:35;;;;;;;104.13;38.53;;;-2.90;99.90;;;;;;5092173;28;20024;-67
2023/02/15 03:54:10;;;;;;;100.75;36.83;;;-2.90;99.90;;;;;;5092261;28;20132;-67
2023/02/15 03:56:39;;;;;;;91.38;37.05;;;-2.90;99.90;;;;;;5092531;28;20373;-67
2023/02/15 04:02:12;;;;;;;99.10;37.38;;;-2.90;99.90;;;;;;5089025;28;20116;-66
2023/02/15 04:04:41;;;;;;;93.82;35.83;;;-2.90;99.90;;;;;;5091805;28;20036;-66
2023/02/15 04:07:08;;;;;;;84.97;35.30;;;-3.00;99.90;;;;;;5094745;28;20034;-66
2023/02/15 04:12:18;;;;;;;89.47;35.97;;;-3.00;99.90;;;;;;5093073;28;20157;-66
2023/02/15 04:17:28;;;;;;;97.05;35.60;;;-3.10;99.90;;;;;;5092495;28;20034;-70
2023/02/15 04:25:21;;;;;;;96.70;36.08;;;-3.10;99.90;;;;;;5092817;28;20035;-66
2023/02/15 04:27:49;;;;;;;103.65;35.95;;;-3.10;99.90;;;;;;5080956;28;20056;-67
2023/02/15 04:30:18;;;;;;;92.43;38.17;;;-3.10;99.90;;;;;;5092075;28;20020;-67
2023/02/15 04:32:44;;;;;;;85.60;34.97;;;-3.00;99.90;;;;;;5092105;28;20449;-66
2023/02/15 04:35:11;;;;;;;90.25;34.47;;;-3.10;99.90;;;;;;5092138;28;20103;-66
2023/02/15 04:37:37;;;;;;;96.05;37.17;;;-3.10;99.90;;;;;;5091739;28;20058;-66
2023/02/15 04:40:04;;;;;;;92.07;35.08;;;-3.20;99.90;;;;;;5092400;28;20038;-67
2023/02/15 04:42:30;;;;;;;97.85;37.83;;;-3.20;99.90;;;;;;5091777;28;20032;-70
2023/02/15 04:44:55;;;;;;;106.43;37.20;;;-3.20;99.90;;;;;;5077337;28;20470;-67
2023/02/15 04:47:21;;;;;;;88.97;35.03;;;-3.30;99.90;;;;;;5091412;28;20448;-66
2023/02/15 04:49:47;;;;;;;84.70;33.92;;;-3.20;99.90;;;;;;5089324;28;20054;-66
2023/02/15 04:52:13;;;;;;;92.47;36.17;;;-3.30;99.90;;;;;;5091883;28;20383;-66
2023/02/15 04:54:38;;;;;;;105.22;38.03;;;-3.30;99.90;;;;;;5091403;28;20026;-66
2023/02/15 04:57:05;;;;;;;93.70;34.83;;;-3.30;99.90;;;;;;5092007;28;20020;-66
2023/02/15 04:59:31;;;;;;;98.47;37.08;;;-3.30;99.90;;;;;;5090631;28;20085;-67
2023/02/15 05:01:56;;;;;;;90.57;35.85;;;-3.40;99.90;;;;;;5087070;28;20040;-66
2023/02/15 05:04:22;;;;;;;106.20;39.22;;;-3.30;99.90;;;;;;5091557;28;20020;-67
2023/02/15 05:06:47;;;;;;;102.95;38.22;;;-3.40;99.90;;;;;;5083322;28;20666;-66
2023/02/15 05:09:14;;;;;;;104.55;38.70;;;-3.30;99.90;;;;;;5090809;28;20024;-67
2023/02/15 05:11:40;;;;;;;103.38;37.85;;;-3.20;99.90;;;;;;5091209;28;20033;-67
2023/02/15 05:14:06;;;;;;;98.22;37.22;;;-3.20;99.90;;;;;;5091638;28;20028;-66
2023/02/15 05:16:32;;;;;;;93.88;34.53;;;-3.10;99.90;;;;;;5090867;28;20024;-67
2023/02/15 05:18:57;;;;;;;91.35;35.95;;;-3.10;99.90;;;;;;5090821;28;20154;-67
2023/02/15 05:21:23;;;;;;;82.05;34.20;;;-3.10;99.90;;;;;;5091317;28;20056;-66
2023/02/15 05:23:49;;;;;;;92.22;35.03;;;-3.10;99.90;;;;;;5090323;28;20619;-67
2023/02/15 05:29:05;;;;;;;78.82;31.52;;;-3.20;99.90;;;;;;5090465;28;20406;-67
2023/02/15 05:31:31;;;;;;;85.63;33.63;;;-3.30;99.90;;;;;;5090600;28;20422;-67
2023/02/15 05:33:57;;;;;;;79.50;31.30;;;-3.40;99.90;;;;;;5079221;28;20037;-67
2023/02/15 05:36:23;;;;;;;83.50;32.65;;;-3.40;99.90;;;;;;5091465;28;20020;-66
2023/02/15 05:38:48;;;;;;;77.53;31.73;;;-3.50;99.90;;;;;;5089377;28;20024;-66
2023/02/15 05:41:14;;;;;;;89.47;33.33;;;-3.60;99.90;;;;;;5090333;28;20042;-67
2023/02/15 05:43:40;;;;;;;85.82;35.20;;;-3.60;99.90;;;;;;5089625;28;20440;-67
2023/02/15 05:46:06;;;;;;;97.20;35.65;;;-3.50;99.90;;;;;;5090449;28;20107;-66
2023/02/15 05:48:32;;;;;;;89.03;33.95;;;-3.50;99.90;;;;;;5087940;28;20058;-67
2023/02/15 05:51:08;;;;;;;88.07;34.35;;;-3.40;99.90;;;;;;5091310;28;20477;-66
2023/02/15 05:53:36;;;;;;;95.35;36.38;;;-3.30;99.90;;;;;;5090206;28;20055;-66
2023/02/15 05:56:02;;;;;;;91.85;35.63;;;-3.30;99.90;;;;;;5091571;28;20028;-65
2023/02/15 05:58:30;;;;;;;83.63;33.35;;;-3.30;99.90;;;;;;5091427;28;20032;-71
2023/02/15 06:00:56;;;;;;;82.50;33.67;;;-3.30;99.90;;;;;;5081156;28;20100;-67
2023/02/15 06:03:22;;;;;;;82.82;33.50;;;-3.30;99.90;;;;;;5091420;28;20423;-66
2023/02/15 06:05:48;;;;;;;88.43;33.72;;;-3.20;99.90;;;;;;5090133;28;20138;-68
2023/02/15 06:08:14;;;;;;;71.22;32.33;;;-3.20;99.90;;;;;;5090862;28;20028;-67
2023/02/15 06:10:40;;;;;;;68.88;30.08;;;-3.30;99.90;;;;;;5089804;28;20024;-66
2023/02/15 06:13:06;;;;;;;68.15;30.02;;;-3.40;99.90;;;;;;5078400;28;20039;-67
2023/02/15 06:15:32;;;;;;;73.75;31.10;;;-3.40;99.90;;;;;;5084353;28;20060;-67
2023/02/15 06:17:57;;;;;;;92.82;34.72;;;-3.60;99.90;;;;;;5094426;28;20511;-67
2023/02/15 06:20:23;;;;;;;89.75;34.65;;;-3.60;99.90;;;;;;5087827;28;20051;-67
2023/02/15 06:22:49;;;;;;;84.45;31.92;;;-3.60;99.90;;;;;;5094267;28;20028;-67
2023/02/15 06:25:14;;;;;;;91.20;34.90;;;-3.70;99.90;;;;;;5094403;28;20027;-68
2023/02/15 06:27:43;;;;;;;101.00;34.42;;;-3.70;99.90;;;;;;5093477;28;20505;-68
2023/02/15 06:30:10;;;;;;;78.70;31.15;;;-3.80;99.90;;;;;;5093888;28;20077;-68
2023/02/15 06:32:36;;;;;;;85.82;32.80;;;-3.80;99.90;;;;;;5091047;28;20032;-67
2023/02/15 06:35:02;;;;;;;93.95;35.13;;;-3.90;99.90;;;;;;5094333;28;20035;-67
2023/02/15 06:37:27;;;;;;;87.57;35.53;;;-3.80;99.90;;;;;;5094068;28;20385;-71
2023/02/15 06:39:53;;;;;;;97.53;36.65;;;-3.70;99.90;;;;;;5093759;28;20028;-68
2023/02/15 06:42:19;;;;;;;97.15;35.97;;;-3.70;99.90;;;;;;5094377;28;20032;-68
2023/02/15 06:44:45;;;;;;;95.28;35.65;;;-3.50;99.90;;;;;;5092826;28;20031;-73
2023/02/15 06:47:11;;;;;;;79.68;35.33;;;-3.50;99.90;;;;;;5094417;28;20028;-70
2023/02/15 06:49:37;;;;;;;108.53;36.00;;;-3.40;99.90;;;;;;5093431;28;20020;-71
2023/02/15 06:52:03;;;;;;;83.22;34.58;;;-3.40;99.90;;;;;;5094200;28;20035;-72
2023/02/15 06:54:29;;;;;;;85.10;34.35;;;-3.40;99.90;;;;;;5093339;28;20476;-76
2023/02/15 06:56:55;;;;;;;94.75;35.67;;;-3.50;99.90;;;;;;5093961;28;20077;-71
2023/02/15 06:59:20;;;;;;;98.78;37.53;;;-3.50;99.90;;;;;;5093940;28;20028;-71
2023/02/15 07:01:46;;;;;;;108.38;37.33;;;-3.40;99.90;;;;;;5075124;28;20024;-72
2023/02/15 07:04:11;;;;;;;105.68;40.17;;;-3.40;99.90;;;;;;5093567;28;20496;-72
2023/02/15 07:06:37;;;;;;;113.32;41.55;;;-3.30;99.90;;;;;;5092930;28;20039;-76
2023/02/15 07:09:04;;;;;;;103.80;39.63;;;-3.20;99.90;;;;;;5091668;28;20020;-71
2023/02/15 07:14:13;;;;;;;107.85;38.65;;;-3.00;99.90;;;;;;5085896;28;20899;-73
2023/02/15 07:16:39;;;;;;;98.65;38.30;;;-3.00;99.90;;;;;;5082654;28;20021;-71
2023/02/15 07:19:04;;;;;;;95.90;38.38;;;-2.90;99.90;;;;;;5091059;28;20094;-72
2023/02/15 07:21:30;;;;;;;94.43;38.05;;;-2.80;99.90;;;;;;5096605;28;20102;-72
2023/02/15 07:23:57;;;;;;;85.53;36.30;;;-2.80;99.90;;;;;;5092480;28;20032;-69
2023/02/15 07:26:23;;;;;;;94.57;36.67;;;-2.80;99.90;;;;;;5093228;28;20108;-69
2023/02/15 07:28:49;;;;;;;94.47;36.00;;;-2.70;99.90;;;;;;5070484;28;20123;-70
2023/02/15 07:31:14;;;;;;;81.38;34.05;;;-2.60;99.90;;;;;;5072802;28;20020;-70
2023/02/15 07:33:40;;;;;;;88.70;35.88;;;-2.60;99.90;;;;;;5065450;28;20036;-71
2023/02/15 07:36:09;;;;;;;85.32;35.58;;;-2.60;99.90;;;;;;5073478;28;20029;-69
2023/02/15 07:38:36;;;;;;;95.68;34.70;;;-2.60;99.90;;;;;;5071342;28;20039;-70
2023/02/15 07:41:04;;;;;;;76.85;33.97;;;-2.60;99.90;;;;;;5069277;28;20450;-70
2023/02/15 07:43:29;;;;;;;82.68;34.00;;;-2.50;99.90;;;;;;5072506;28;20025;-73
2023/02/15 07:46:07;;;;;;;84.72;36.83;;;-2.50;99.90;;;;;;5082067;28;20036;-69
2023/02/15 07:48:33;;;;;;;91.35;35.63;;;-2.40;99.90;;;;;;5072964;28;20432;-70
2023/02/15 07:51:00;;;;;;;93.53;38.38;;;-2.30;99.90;;;;;;5072409;28;20527;-69
2023/02/15 07:53:26;;;;;;;87.95;35.63;;;-2.20;99.90;;;;;;5072102;28;20031;-72
2023/02/15 07:55:52;;;;;;;85.65;35.83;;;-2.10;99.90;;;;;;5054114;28;20025;-70
2023/02/15 07:58:18;;;;;;;80.47;34.05;;;-2.10;99.90;;;;;;5074913;28;20029;-70
2023/02/15 08:01:01;;;;;;;78.40;34.78;;;-2.10;99.90;;;;;;5071540;28;20032;-70
2023/02/15 08:03:28;;;;;;;75.35;35.22;;;-2.00;99.90;;;;;;5067881;28;20025;-73
2023/02/15 08:05:58;;;;;;;89.20;36.75;;;-2.00;99.90;;;;;;5073079;28;20478;-70
2023/02/15 08:08:31;;;;;;;86.57;37.22;;;-1.90;99.90;;;;;;5072059;28;20036;-70
2023/02/15 08:13:55;;;;;;;76.30;32.85;;;-1.70;99.90;;;;;;5071634;28;20059;-70
2023/02/15 08:16:33;;;;;;;75.53;35.15;;;-1.60;99.90;;;;;;5070971;28;20060;-70
2023/02/15 08:19:02;;;;;;;69.65;33.30;;;-1.50;99.90;;;;;;5068809;28;20040;-70
2023/02/15 08:21:29;;;;;;;69.13;32.80;;;-1.50;99.90;;;;;;5067166;28;20055;-73
2023/02/15 08:23:56;;;;;;;79.43;35.65;;;-1.50;99.90;;;;;;5076330;28;20036;-70
2023/02/15 08:26:22;;;;;;;75.03;35.45;;;-1.50;99.90;;;;;;5072053;28;20044;-70
2023/02/15 08:28:49;;;;;;;72.22;34.72;;;-1.40;99.90;;;;;;5070174;28;20243;-71
2023/02/15 08:31:16;;;;;;;72.88;34.00;;;-1.40;99.90;;;;;;5072157;28;20038;-69
2023/02/15 08:33:43;;;;;;;77.85;35.83;;;-1.30;99.90;;;;;;5070602;28;20809;-70
2023/02/15 08:36:14;;;;;;;68.32;33.78;;;-1.20;99.90;;;;;;5070931;28;20503;-70
2023/02/15 08:38:41;;;;;;;77.03;35.13;;;-1.10;99.90;;;;;;5070706;28;20025;-70
2023/02/15 08:41:14;;;;;;;67.80;33.33;;;-1.10;99.90;;;;;;5072339;28;20509;-70
2023/02/15 08:43:41;;;;;;;67.50;32.17;;;-1.00;99.90;;;;;;5070539;28;20028;-70
2023/02/15 08:46:08;;;;;;;63.25;31.85;;;-0.80;99.90;;;;;;5072185;28;20020;-69
2023/02/15 08:48:34;;;;;;;56.25;27.63;;;-0.70;99.90;;;;;;5070940;28;20040;-69
2023/02/15 08:51:10;;;;;;;51.10;28.30;;;-0.60;99.90;;;;;;5053957;28;20029;-69
2023/02/15 08:53:36;;;;;;;52.58;27.98;;;-0.50;99.90;;;;;;5066618;28;20393;-69
2023/02/15 08:56:02;;;;;;;52.28;26.77;;;-0.40;99.90;;;;;;5071664;28;20358;-69
2023/02/15 08:58:29;;;;;;;56.47;27.80;;;-0.50;99.90;;;;;;5071132;28;20024;-72
2023/02/15 09:00:55;;;;;;;51.38;26.60;;;-0.30;99.90;;;;;;5071294;28;20036;-69
2023/02/15 09:03:20;;;;;;;57.35;26.98;;;-0.40;99.90;;;;;;5071829;28;20024;-69
2023/02/15 09:05:46;;;;;;;47.05;26.25;;;-0.30;99.90;;;;;;5070969;28;20024;-69
2023/02/15 09:08:11;;;;;;;49.80;26.48;;;-0.30;99.90;;;;;;5071308;28;20378;-71
2023/02/15 09:10:37;;;;;;;56.00;27.55;;;-0.40;99.90;;;;;;5067339;28;20029;-68
2023/02/15 09:13:03;;;;;;;50.08;26.33;;;-0.30;99.90;;;;;;5071543;28;20385;-69
2023/02/15 09:15:28;;;;;;;49.58;26.42;;;-0.20;99.90;;;;;;5070016;28;20100;-72
2023/02/15 09:17:54;;;;;;;45.65;24.40;;;-0.20;99.90;;;;;;5070876;28;20078;-69
2023/02/15 09:20:19;;;;;;;50.63;24.45;;;-0.10;99.90;;;;;;5070963;28;20397;-70
2023/02/15 09:22:45;;;;;;;50.92;24.88;;;-0.10;99.90;;;;;;5072942;28;20032;-69
2023/02/15 09:25:13;;;;;;;46.30;26.13;;;-0.20;99.90;;;;;;5068958;28;20085;-70
2023/02/15 09:27:39;;;;;;;43.90;24.63;;;-0.20;99.90;;;;;;5067190;28;20128;-69
2023/02/15 09:30:06;;;;;;;45.03;24.48;;;-0.10;99.90;;;;;;5070942;28;20032;-69
2023/02/15 09:32:31;;;;;;;46.05;24.85;;;-0.10;99.90;;;;;;5069870;28;20165;-69
2023/02/15 09:34:57;;;;;;;42.88;22.55;;;-0.10;99.90;;;;;;5070418;28;20099;-69
2023/02/15 09:37:22;;;;;;;46.13;23.77;;;-0.10;99.90;;;;;;5071085;28;20419;-69
2023/02/15 09:39:48;;;;;;;42.92;23.63;;;0.00;99.90;;;;;;5069611;28;20163;-69
2023/02/15 09:42:26;;;;;;;46.78;24.75;;;0.00;99.90;;;;;;5070546;28;20036;-69
2023/02/15 09:45:12;;;;;;;44.90;24.95;;;0.00;99.90;;;;;;5058466;28;20035;-70
2023/02/15 09:48:15;;;;;;;50.72;26.45;;;0.10;99.90;;;;;;5069178;28;20071;-68
2023/02/15 09:51:02;;;;;;;48.03;25.27;;;0.10;99.90;;;;;;5068675;28;20493;-70
2023/02/15 09:53:30;;;;;;;43.78;23.55;;;0.20;99.90;;;;;;5067391;28;20024;-72
2023/02/15 09:56:02;;;;;;;45.05;24.65;;;0.20;99.90;;;;;;5070276;28;20024;-69
2023/02/15 09:58:50;;;;;;;48.08;24.92;;;0.30;99.90;;;;;;5069765;28;20429;-72
2023/02/15 10:01:34;;;;;;;50.60;25.05;;;0.40;99.90;;;;;;5059153;28;20016;-68
2023/02/15 10:04:18;;;;;;;45.65;25.38;;;0.30;99.90;;;;;;5069762;28;20041;-69
2023/02/15 10:07:04;;;;;;;48.25;25.85;;;0.20;99.90;;;;;;5069845;28;20142;-69
2023/02/15 10:09:44;;;;;;;44.85;25.00;;;0.30;99.90;;;;;;5063228;28;20039;-72
2023/02/15 10:12:13;;;;;;;49.33;26.15;;;0.30;99.90;;;;;;5071512;28;20036;-68
2023/02/15 10:15:08;;;;;;;55.65;26.98;;;0.40;99.90;;;;;;5069207;28;20021;-68
2023/02/15 10:18:01;;;;;;;52.85;26.05;;;0.50;99.90;;;;;;5064250;28;20028;-67
2023/02/15 10:20:31;;;;;;;49.63;26.38;;;0.70;99.90;;;;;;5069527;28;20025;-68
2023/02/15 10:23:38;;;;;;;49.70;24.55;;;0.90;99.90;;;;;;5070010;28;20029;-68
2023/02/15 10:26:17;;;;;;;46.65;25.70;;;1.30;99.90;;;;;;5023560;28;20367;-68
2023/02/15 10:28:51;;;;;;;53.63;27.95;;;1.10;99.90;;;;;;5084819;28;20048;-69
2023/02/15 10:31:35;;;;;;;47.70;26.30;;;1.20;99.90;;;;;;5079704;28;20032;-69
2023/02/15 10:34:41;;;;;;;47.42;25.00;;;1.30;99.90;;;;;;5084688;28;20462;-69
2023/02/15 10:37:10;;;;;;;46.13;23.25;;;1.50;99.90;;;;;;5078983;28;20511;-69
2023/02/15 10:39:41;;;;;;;46.75;23.77;;;1.60;99.90;;;;;;5089670;28;20105;-69
2023/02/15 10:42:15;;;;;;;43.08;24.10;;;1.80;99.90;;;;;;5090163;28;20024;-69
2023/02/15 10:44:57;;;;;;;45.10;23.83;;;1.90;99.90;;;;;;5088966;28;20054;-70
2023/02/15 10:47:24;;;;;;;39.80;22.23;;;;;;;;;;5077141;28;20027;-69
2023/02/15 10:50:24;;;;;;;43.10;23.70;;;2.20;99.90;;;;;;5089185;28;20035;-69
2023/02/15 10:53:13;;;;;;;48.20;24.27;;;2.40;99.90;;;;;;5078168;28;20029;-70
2023/02/15 10:55:45;;;;;;;40.05;23.02;;;2.60;99.90;;;;;;5056450;28;20438;-70
2023/02/15 10:58:16;;;;;;;55.58;23.48;;;2.70;99.90;;;;;;5086115;28;20047;-70
2023/02/15 11:00:45;;;;;;;41.85;24.35;;;2.90;99.90;;;;;;5092285;28;20020;-70
2023/02/15 11:03:17;;;;;;;46.50;23.73;;;3.00;99.90;;;;;;5094031;28;20032;-69
2023/02/15 11:05:54;;;;;;;42.22;22.85;;;3.20;99.90;;;;;;5092901;28;20031;-69
2023/02/15 11:08:23;;;;;;;38.70;22.95;;;3.40;99.90;;;;;;5093862;28;20024;-69
2023/02/15 11:10:54;;;;;;;38.42;22.85;;;3.50;99.90;;;;;;5090263;28;20060;-70
2023/02/15 11:13:24;;;;;;;44.38;24.38;;;3.50;99.90;;;;;;5081499;28;20020;-69
2023/02/15 11:16:00;;;;;;;42.53;22.85;;;3.70;99.90;;;;;;5086157;28;20525;-70
2023/02/15 11:19:11;;;;;;;38.72;22.08;;;3.70;99.90;;;;;;5093620;28;20457;-72
2023/02/15 11:21:45;;;;;;;35.35;21.55;;;3.70;99.90;;;;;;5078255;28;20029;-70
2023/02/15 11:24:14;;;;;;;41.78;23.17;;;3.80;99.90;;;;;;5089895;28;20046;-70
2023/02/15 11:26:44;;;;;;;39.50;21.27;;;4.00;99.90;;;;;;5082399;28;20025;-70
2023/02/15 11:29:31;;;;;;;39.75;23.67;;;4.20;99.90;;;;;;5091618;28;20058;-70
2023/02/15 11:32:28;;;;;;;45.15;23.33;;;4.50;99.90;;;;;;5092696;28;20060;-70
2023/02/15 11:35:01;;;;;;;37.22;22.50;;;4.60;99.90;;;;;;5084553;28;20032;-70
2023/02/15 11:37:38;;;;;;;43.35;24.75;;;4.80;99.90;;;;;;5092615;28;20496;-71
2023/02/15 11:40:22;;;;;;;37.22;23.13;;;4.90;99.90;;;;;;5092692;28;20335;-69
2023/02/15 11:42:49;;;;;;;40.30;22.65;;;4.90;99.90;;;;;;5084792;28;20029;-70
2023/02/15 11:45:29;;;;;;;36.53;23.27;;;5.00;99.90;;;;;;5081973;28;20035;-69
2023/02/15 11:47:56;;;;;;;38.53;23.53;;;5.00;99.90;;;;;;5093343;28;20036;-70
2023/02/15 11:50:25;;;;;;;42.25;23.17;;;5.00;99.90;;;;;;5097676;28;20047;-70
2023/02/15 11:52:57;;;;;;;39.47;23.73;;;5.10;99.90;;;;;;5091524;28;20032;-70
2023/02/15 11:55:24;;;;;;;36.33;22.70;;;;;;;;;;5091718;28;20043;-70
2023/02/15 11:57:55;;;;;;;41.67;23.50;;;;;;;;;;5092179;28;20024;-70
2023/02/15 12:00:38;;;;;;;38.67;21.85;;;5.60;99.90;;;;;;5091819;28;20364;-69
2023/02/15 12:03:33;;;;;;;34.70;21.42;;;5.60;99.90;;;;;;5073272;28;20359;-70
2023/02/15 12:06:03;;;;;;;38.10;23.75;;;5.70;99.90;;;;;;5071888;28;20071;-70
2023/02/15 12:08:38;;;;;;;40.95;22.48;;;;;;;;;;5072591;28;20125;-71
2023/02/15 12:11:15;;;;;;;36.13;21.95;;;5.90;99.90;;;;;;5091755;28;20025;-70
2023/02/15 12:13:59;;;;;;;39.22;23.00;;;6.00;99.90;;;;;;5091446;28;20024;-70
2023/02/15 12:16:26;;;;;;;38.10;23.52;;;6.00;99.90;;;;;;5092735;28;20051;-70
2023/02/15 12:18:55;;;;;;;33.08;22.33;;;6.20;99.90;;;;;;5087638;28;20048;-70
2023/02/15 12:21:30;;;;;;;43.10;22.75;;;6.30;99.90;;;;;;5079792;28;20500;-70
2023/02/15 12:24:00;;;;;;;29.23;20.55;;;6.30;99.90;;;;;;5091952;28;20377;-70
2023/02/15 12:26:27;;;;;;;33.30;21.77;;;6.30;99.90;;;;;;5092101;28;20108;-68
2023/02/15 12:28:54;;;;;;;36.63;22.92;;;6.40;99.90;;;;;;5090856;28;20047;-69
2023/02/15 12:31:20;;;;;;;40.58;23.25;;;6.50;99.90;;;;;;5092119;28;20024;-69
2023/02/15 12:33:46;;;;;;;34.53;21.02;;;6.60;99.90;;;;;;5091053;28;20024;-68
2023/02/15 12:36:23;;;;;;;36.15;21.88;;;6.60;99.90;;;;;;5092362;28;20024;-69
2023/02/15 12:39:17;;;;;;;37.13;21.92;;;;;;;;;;5090838;28;20717;-68
2023/02/15 12:41:54;;;;;;;38.55;21.95;;;7.10;99.90;;;;;;5086548;28;20027;-68
2023/02/15 12:44:23;;;;;;;39.92;22.35;;;7.10;99.90;;;;;;5091781;28;20029;-68
2023/02/15 12:47:04;;;;;;;38.28;22.30;;;7.30;99.90;;;;;;5089181;28;20020;-71
2023/02/15 12:49:41;;;;;;;38.00;22.85;;;7.80;99.90;;;;;;5087080;28;20035;-72
2023/02/15 12:52:24;;;;;;;35.17;21.50;;;7.80;99.90;;;;;;5072172;28;20024;-72
2023/02/15 12:54:50;;;;;;;31.65;20.73;;;8.40;99.90;;;;;;5086348;28;20067;-71
2023/02/15 12:57:23;;;;;;;31.35;21.67;;;;;;;;;;5079797;28;20435;-71
2023/02/15 12:59:52;;;;;;;31.00;21.20;;;;;;;;;;5090757;28;20023;-72
2023/02/15 13:02:44;;;;;;;31.13;21.83;;;;;;;;;;5089814;28;20056;-73
2023/02/15 13:05:13;;;;;;;35.42;21.00;;;;;;;;;;5088451;28;20111;-74
2023/02/15 13:07:45;;;;;;;34.70;21.25;;;11.20;99.90;;;;;;5090519;28;20070;-73
2023/02/15 13:10:34;;;;;;;29.10;19.73;;;11.20;99.90;;;;;;5091430;28;20085;-73
2023/02/15 13:13:02;;;;;;;29.58;20.80;;;11.80;99.90;;;;;;5091628;28;20038;-73
2023/02/15 13:15:34;;;;;;;35.33;20.42;;;12.30;99.90;;;;;;5090810;28;20499;-73